Time;durP1;ratioP1;P1;durP2;ratioP2;P2;SDS_P1;SDS_P2;PMS_P1;PMS_P2;Temp;Humidity;BMP_temperature;BMP_pressure;BME280_temperature;BME280_humidity;BME280_pressure;Samples;Min_cycle;Max_cycle;Signal;HPM_P1;HPM_P2
2022/12/21 00:02:02;;;;;;;11.02;9.98;;;3.90;99.90;;;;;;5048922;28;20048;-91
2022/12/21 00:04:29;;;;;;;11.27;10.27;;;3.80;99.90;;;;;;5070041;28;20053;-92
2022/12/21 00:06:54;;;;;;;11.23;10.23;;;3.80;99.90;;;;;;5069100;28;20037;-92
2022/12/21 00:09:20;;;;;;;11.05;10.00;;;3.70;99.90;;;;;;5067889;28;20025;-92
2022/12/21 00:11:46;;;;;;;11.95;11.05;;;3.70;99.90;;;;;;5066154;28;20048;-92
2022/12/21 00:14:11;;;;;;;11.00;10.05;;;3.70;99.90;;;;;;5064588;28;20021;-91
2022/12/21 00:16:40;;;;;;;10.38;9.50;;;3.70;99.90;;;;;;5052827;28;20585;-91
2022/12/21 00:19:06;;;;;;;10.35;9.55;;;3.70;99.90;;;;;;5069715;28;20131;-91
2022/12/21 00:21:34;;;;;;;10.48;9.43;;;3.60;99.90;;;;;;5055998;28;20052;-91
2022/12/21 00:24:00;;;;;;;11.02;9.93;;;3.50;99.90;;;;;;5065113;28;20055;-92
2022/12/21 00:26:32;;;;;;;11.18;10.00;;;3.50;99.90;;;;;;5062891;28;20051;-91
2022/12/21 00:28:58;;;;;;;11.93;10.80;;;3.50;99.90;;;;;;5055104;28;20032;-91
2022/12/21 00:31:27;;;;;;;12.73;11.52;;;3.70;99.90;;;;;;5057068;28;20033;-91
2022/12/21 00:33:53;;;;;;;10.57;9.65;;;3.70;99.90;;;;;;5056607;28;20028;-91
2022/12/21 00:36:21;;;;;;;13.00;11.60;;;3.80;99.90;;;;;;5059138;28;20097;-91
2022/12/21 00:38:47;;;;;;;13.80;12.80;;;4.00;99.90;;;;;;5051926;28;20560;-91
2022/12/21 00:41:15;;;;;;;14.05;12.95;;;3.90;99.90;;;;;;5046551;28;20029;-90
2022/12/21 00:43:42;;;;;;;13.48;12.48;;;3.90;99.90;;;;;;5040123;28;20025;-91
2022/12/21 00:46:19;;;;;;;13.70;12.65;;;3.90;99.90;;;;;;5045738;28;20061;-91
2022/12/21 00:48:45;;;;;;;14.75;13.52;;;4.00;99.90;;;;;;5060330;28;20021;-91
2022/12/21 00:51:14;;;;;;;15.68;14.57;;;4.00;99.90;;;;;;5061156;28;20032;-91
2022/12/21 00:53:40;;;;;;;14.40;13.20;;;3.90;99.90;;;;;;5075068;28;20021;-91
2022/12/21 00:56:07;;;;;;;14.88;13.68;;;3.90;99.90;;;;;;5058692;28;20063;-91
2022/12/21 00:58:34;;;;;;;14.68;13.68;;;3.80;99.90;;;;;;5040376;28;20049;-91
2022/12/21 01:01:05;;;;;;;13.57;12.68;;;3.90;99.90;;;;;;5058856;28;20037;-91
2022/12/21 01:03:32;;;;;;;15.02;13.95;;;3.80;99.90;;;;;;5059004;28;20021;-91
2022/12/21 01:05:58;;;;;;;14.88;13.80;;;3.70;99.90;;;;;;5064999;28;20033;-91
2022/12/21 01:08:25;;;;;;;15.27;14.15;;;3.70;99.90;;;;;;5068841;28;20076;-91
2022/12/21 01:10:58;;;;;;;14.80;13.25;;;3.60;99.90;;;;;;5063973;28;20048;-92
2022/12/21 01:13:26;;;;;;;13.73;12.73;;;3.50;99.90;;;;;;5056832;28;20025;-92
2022/12/21 01:15:52;;;;;;;16.45;15.15;;;3.70;99.90;;;;;;5064340;28;20029;-91
2022/12/21 01:18:17;;;;;;;15.38;14.25;;;3.70;99.90;;;;;;5059577;28;20518;-91
2022/12/21 01:20:49;;;;;;;15.73;14.55;;;3.60;99.90;;;;;;5032129;28;20406;-92
2022/12/21 01:23:15;;;;;;;28.83;27.27;;;3.60;99.90;;;;;;5062557;28;20025;-91
2022/12/21 01:25:45;;;;;;;17.55;16.13;;;3.70;99.90;;;;;;5065815;28;20047;-92
2022/12/21 01:28:12;;;;;;;15.23;14.10;;;3.70;99.90;;;;;;5062634;28;20116;-91
2022/12/21 01:30:38;;;;;;;17.92;16.60;;;3.70;99.90;;;;;;5060133;28;20042;-92
2022/12/21 01:33:06;;;;;;;18.77;15.45;;;3.80;99.90;;;;;;5065346;28;20083;-91
2022/12/21 01:35:31;;;;;;;15.88;14.73;;;3.80;99.90;;;;;;5047009;28;20037;-91
2022/12/21 01:37:57;;;;;;;18.08;16.80;;;3.80;99.90;;;;;;5066481;28;20040;-91
2022/12/21 01:40:22;;;;;;;17.65;16.00;;;3.80;99.90;;;;;;5060417;28;20065;-92
2022/12/21 01:42:48;;;;;;;18.05;16.73;;;3.70;99.90;;;;;;5059180;28;20071;-92
2022/12/21 01:45:26;;;;;;;15.20;14.23;;;3.70;99.90;;;;;;5056952;28;20033;-91
2022/12/21 01:47:57;;;;;;;16.17;14.82;;;3.70;99.90;;;;;;5057161;28;20033;-92
2022/12/21 01:50:41;;;;;;;13.98;12.90;;;3.70;99.90;;;;;;5051643;28;20036;-91
2022/12/21 01:53:27;;;;;;;15.80;14.70;;;3.70;99.90;;;;;;5058583;28;20048;-92
2022/12/21 01:55:57;;;;;;;14.25;13.20;;;3.60;99.90;;;;;;5056935;28;20025;-92
2022/12/21 01:58:25;;;;;;;14.15;13.10;;;3.60;99.90;;;;;;5057795;28;20044;-92
2022/12/21 02:00:52;;;;;;;13.35;12.45;;;3.60;99.90;;;;;;5056149;28;20044;-91
2022/12/21 02:03:21;;;;;;;16.60;15.05;;;3.80;99.90;;;;;;5064623;28;20028;-91
2022/12/21 02:05:58;;;;;;;15.43;14.43;;;3.70;99.90;;;;;;5054667;28;20398;-91
2022/12/21 02:08:23;;;;;;;14.20;13.20;;;3.70;99.90;;;;;;5056329;28;20037;-91
2022/12/21 02:10:51;;;;;;;20.17;18.88;;;3.80;99.90;;;;;;5031020;28;20047;-91
2022/12/21 02:13:17;;;;;;;14.60;13.68;;;3.70;99.90;;;;;;5059956;28;20025;-91
2022/12/21 02:15:58;;;;;;;18.27;17.10;;;3.80;99.90;;;;;;5039635;28;20040;-91
2022/12/21 02:18:53;;;;;;;17.02;15.68;;;3.80;99.90;;;;;;5054534;28;20735;-90
2022/12/21 02:21:44;;;;;;;18.35;15.07;;;3.90;99.90;;;;;;5037293;28;20060;-90
2022/12/21 02:24:41;;;;;;;19.08;17.98;;;3.90;99.90;;;;;;5052284;28;20040;-91
2022/12/21 02:27:19;;;;;;;207.65;143.45;;;4.00;99.90;;;;;;5053392;28;20032;-91
2022/12/21 02:30:04;;;;;;;24.92;23.50;;;4.00;99.90;;;;;;5055122;28;20036;-91
2022/12/21 02:33:00;;;;;;;16.85;15.68;;;4.10;99.90;;;;;;5059210;28;20029;-91
2022/12/21 02:35:50;;;;;;;19.63;17.98;;;4.10;99.90;;;;;;5044002;28;20075;-90
2022/12/21 02:38:32;;;;;;;15.13;14.10;;;4.10;99.90;;;;;;5047493;28;20502;-91
2022/12/21 02:41:10;;;;;;;17.13;16.00;;;4.00;99.90;;;;;;5052821;28;20063;-91
2022/12/21 02:47:18;;;;;;;14.82;13.82;;;4.00;99.90;;;;;;5053836;28;20407;-91
2022/12/21 02:50:05;;;;;;;14.60;13.70;;;3.90;99.90;;;;;;5052653;28;20102;-90
2022/12/21 02:52:53;;;;;;;13.55;12.57;;;3.90;99.90;;;;;;5055374;28;20056;-91
2022/12/21 02:55:19;;;;;;;15.00;13.65;;;3.90;99.90;;;;;;5055448;28;20035;-91
2022/12/21 02:57:45;;;;;;;14.07;13.07;;;3.80;99.90;;;;;;5059042;28;20052;-91
2022/12/21 03:00:17;;;;;;;13.85;12.02;;;3.80;99.90;;;;;;5051750;28;20025;-91
2022/12/21 03:06:07;;;;;;;14.15;13.20;;;3.80;99.90;;;;;;5061077;28;20072;-90
2022/12/21 03:08:45;;;;;;;14.98;13.77;;;3.80;99.90;;;;;;5062748;28;20041;-90
2022/12/21 03:11:12;;;;;;;14.07;13.15;;;3.80;99.90;;;;;;5063444;28;20036;-91
2022/12/21 03:13:56;;;;;;;16.35;12.35;;;3.70;99.90;;;;;;5063789;28;20087;-91
2022/12/21 03:16:34;;;;;;;16.65;15.45;;;3.60;99.90;;;;;;5062482;28;20029;-91
2022/12/21 03:19:10;;;;;;;15.13;14.05;;;3.70;99.90;;;;;;5072658;28;20028;-91
2022/12/21 03:21:47;;;;;;;17.75;16.52;;;3.80;99.90;;;;;;5061589;28;20052;-91
2022/12/21 03:24:22;;;;;;;16.35;15.25;;;3.80;99.90;;;;;;5060004;28;20017;-91
2022/12/21 03:27:05;;;;;;;14.43;13.35;;;3.70;99.90;;;;;;5051330;28;20055;-91
2022/12/21 03:29:36;;;;;;;17.73;16.63;;;3.70;99.90;;;;;;5054718;28;20456;-91
2022/12/21 03:32:09;;;;;;;22.52;21.15;;;3.80;99.90;;;;;;5056262;28;20521;-91
2022/12/21 03:34:42;;;;;;;28.17;26.52;;;3.70;99.90;;;;;;5058481;28;20036;-91
2022/12/21 03:37:13;;;;;;;34.47;32.38;;;3.80;99.90;;;;;;5039498;28;20037;-91
2022/12/21 03:39:44;;;;;;;26.77;25.33;;;3.90;99.90;;;;;;5038870;28;20056;-91
2022/12/21 03:42:20;;;;;;;40.72;38.00;;;4.00;99.90;;;;;;5056864;28;20021;-91
2022/12/21 03:44:53;;;;;;;18.13;16.98;;;4.00;99.90;;;;;;5024433;28;20048;-90
2022/12/21 03:47:34;;;;;;;28.70;27.33;;;3.90;99.90;;;;;;5032554;28;20028;-91
2022/12/21 03:50:05;;;;;;;22.67;21.30;;;3.90;99.90;;;;;;5049484;28;20056;-90
2022/12/21 03:52:37;;;;;;;27.15;25.60;;;3.90;99.90;;;;;;5058669;28;20025;-90
2022/12/21 03:55:06;;;;;;;30.80;28.75;;;3.90;99.90;;;;;;5043863;28;20051;-91
2022/12/21 03:57:34;;;;;;;27.15;25.73;;;3.90;99.90;;;;;;5053205;28;20057;-90
2022/12/21 04:00:03;;;;;;;29.67;27.98;;;3.90;99.90;;;;;;5056381;28;20028;-91
2022/12/21 04:02:56;;;;;;;28.40;26.83;;;4.00;99.90;;;;;;5045601;28;20091;-90
2022/12/21 04:05:25;;;;;;;23.50;21.95;;;3.90;99.90;;;;;;5050863;28;20094;-90
2022/12/21 04:07:54;;;;;;;27.85;25.95;;;3.90;99.90;;;;;;5052505;28;20729;-90
2022/12/21 04:10:22;;;;;;;128.55;116.50;;;4.00;99.90;;;;;;5034667;28;20116;-91
2022/12/21 04:12:48;;;;;;;31.40;29.25;;;4.00;99.90;;;;;;5044328;28;20055;-90
2022/12/21 04:15:20;;;;;;;27.08;25.67;;;3.90;99.90;;;;;;5053392;28;20064;-90
2022/12/21 04:17:48;;;;;;;28.85;27.13;;;4.00;99.90;;;;;;5051518;28;20029;-90
2022/12/21 04:20:17;;;;;;;30.15;28.67;;;4.00;99.90;;;;;;5037463;28;20031;-91
2022/12/21 04:28:40;;;;;;;20.27;18.77;;;3.90;99.90;;;;;;5048546;28;20049;-91
2022/12/21 04:31:05;;;;;;;16.55;15.50;;;3.90;99.90;;;;;;5032856;28;20037;-91
2022/12/21 04:33:31;;;;;;;24.52;22.92;;;3.90;99.90;;;;;;5053712;28;20546;-90
2022/12/21 04:38:43;;;;;;;25.08;23.80;;;4.00;99.90;;;;;;5057086;28;20704;-90
2022/12/21 04:41:09;;;;;;;30.52;29.00;;;4.10;99.90;;;;;;5056375;28;20041;-90
2022/12/21 04:43:39;;;;;;;28.92;27.27;;;4.10;99.90;;;;;;5054008;28;20036;-91
2022/12/21 04:46:08;;;;;;;23.98;22.60;;;4.10;99.90;;;;;;5053719;28;20094;-91
2022/12/21 04:48:35;;;;;;;26.25;24.88;;;4.20;99.90;;;;;;5055679;28;20127;-90
2022/12/21 04:51:06;;;;;;;36.72;35.00;;;4.30;99.90;;;;;;5045532;28;20430;-90
2022/12/21 04:53:32;;;;;;;21.83;20.40;;;4.30;99.90;;;;;;5052381;28;20040;-90
2022/12/21 04:55:58;;;;;;;92.50;85.53;;;4.20;99.90;;;;;;5053423;28;20036;-90
2022/12/21 04:58:23;;;;;;;62.17;57.92;;;4.30;99.90;;;;;;5051815;28;20061;-91
2022/12/21 05:00:49;;;;;;;42.35;40.17;;;4.30;99.90;;;;;;5051369;28;20025;-91
2022/12/21 05:03:14;;;;;;;27.38;25.67;;;4.20;99.90;;;;;;5048757;28;20040;-90
2022/12/21 05:05:40;;;;;;;83.97;65.95;;;4.20;99.90;;;;;;5053407;28;20037;-90
2022/12/21 05:08:06;;;;;;;31.20;29.50;;;4.20;99.90;;;;;;5034042;28;20060;-90
2022/12/21 05:10:31;;;;;;;40.53;38.22;;;4.20;99.90;;;;;;5035647;28;20036;-91
2022/12/21 05:12:57;;;;;;;34.80;32.95;;;4.20;99.90;;;;;;5036423;28;20494;-90
2022/12/21 05:15:22;;;;;;;32.40;30.60;;;4.30;99.90;;;;;;5052276;28;20606;-91
2022/12/21 05:17:48;;;;;;;32.53;30.90;;;4.30;99.90;;;;;;5042159;28;20697;-90
2022/12/21 05:20:14;;;;;;;36.67;34.47;;;4.30;99.90;;;;;;5053803;28;20036;-90
2022/12/21 05:22:39;;;;;;;60.83;56.50;;;4.20;99.90;;;;;;5048303;28;20122;-90
2022/12/21 05:25:05;;;;;;;34.92;32.95;;;4.30;99.90;;;;;;5050418;28;20037;-91
2022/12/21 05:27:31;;;;;;;27.90;26.50;;;4.20;99.90;;;;;;5053291;28;20550;-91
2022/12/21 05:29:56;;;;;;;28.95;27.25;;;4.30;99.90;;;;;;5018666;28;20044;-90
2022/12/21 05:32:22;;;;;;;29.55;28.08;;;4.20;99.90;;;;;;5050726;28;20787;-90
2022/12/21 05:34:47;;;;;;;22.48;21.10;;;4.30;99.90;;;;;;5050169;28;20028;-90
2022/12/21 05:37:13;;;;;;;85.65;80.47;;;4.20;99.90;;;;;;5049136;28;20777;-91
2022/12/21 05:39:39;;;;;;;27.10;25.83;;;4.20;99.90;;;;;;5049530;28;20632;-90
2022/12/21 05:42:04;;;;;;;42.63;40.60;;;4.30;99.90;;;;;;5049790;28;20075;-91
2022/12/21 05:44:30;;;;;;;31.98;29.90;;;4.30;99.90;;;;;;5048968;28;20032;-90
2022/12/21 05:46:55;;;;;;;87.60;79.80;;;4.30;99.90;;;;;;5051310;28;20036;-91
2022/12/21 05:49:21;;;;;;;30.55;29.05;;;4.50;99.90;;;;;;5033675;28;20041;-91
2022/12/21 05:51:48;;;;;;;35.17;33.47;;;4.50;99.90;;;;;;5051105;28;20081;-90
2022/12/21 05:54:17;;;;;;;98.03;90.85;;;4.40;99.90;;;;;;5050347;28;20027;-91
2022/12/21 05:56:43;;;;;;;36.90;34.83;;;4.40;99.90;;;;;;5050646;28;20053;-90
2022/12/21 05:59:09;;;;;;;38.70;36.65;;;4.40;99.90;;;;;;5031878;28;20525;-91
2022/12/21 06:01:35;;;;;;;40.00;38.10;;;4.40;99.90;;;;;;5051603;28;20044;-91
2022/12/21 06:04:01;;;;;;;68.43;65.18;;;4.40;99.90;;;;;;5047685;28;20051;-91
2022/12/21 06:06:27;;;;;;;31.60;29.95;;;4.50;99.90;;;;;;5052663;28;20028;-90
2022/12/21 06:08:53;;;;;;;35.92;34.28;;;4.50;99.90;;;;;;5057330;28;20024;-90
2022/12/21 06:11:22;;;;;;;42.33;39.83;;;4.50;99.90;;;;;;5050563;28;20029;-90
2022/12/21 06:13:48;;;;;;;36.25;33.83;;;4.60;99.90;;;;;;5055601;28;20024;-90
2022/12/21 06:16:16;;;;;;;54.58;52.13;;;4.60;99.90;;;;;;5047398;28;20028;-90
2022/12/21 06:18:42;;;;;;;71.35;66.65;;;4.50;99.90;;;;;;5032687;28;20016;-89
2022/12/21 06:21:09;;;;;;;33.10;31.35;;;4.50;99.90;;;;;;5055200;28;20032;-91
2022/12/21 06:23:35;;;;;;;68.07;64.45;;;4.40;99.90;;;;;;5028385;28;20017;-89
2022/12/21 06:26:03;;;;;;;115.43;110.13;;;4.30;99.90;;;;;;5045328;28;20029;-82
2022/12/21 06:28:30;;;;;;;36.30;34.53;;;4.40;99.90;;;;;;5050568;28;20502;-88
2022/12/21 06:31:02;;;;;;;35.55;33.65;;;4.40;99.90;;;;;;5022520;28;20054;-85
2022/12/21 06:33:30;;;;;;;32.50;30.70;;;4.40;99.90;;;;;;5044323;28;20440;-85
2022/12/21 06:35:59;;;;;;;44.65;42.70;;;4.40;99.90;;;;;;5053647;28;20090;-88
2022/12/21 06:38:32;;;;;;;37.42;35.65;;;4.40;99.90;;;;;;5051590;28;20078;-90
2022/12/21 06:41:00;;;;;;;42.63;40.28;;;4.50;99.90;;;;;;5034913;28;20040;-87
2022/12/21 06:43:28;;;;;;;186.07;177.73;;;4.50;99.90;;;;;;5051864;28;20053;-89
2022/12/21 06:45:54;;;;;;;36.45;34.58;;;4.60;99.90;;;;;;5047139;28;20025;-89
2022/12/21 06:48:21;;;;;;;74.20;70.53;;;4.50;99.90;;;;;;5055338;28;20036;-87
2022/12/21 06:50:54;;;;;;;75.38;72.05;;;4.50;99.90;;;;;;5049640;28;20072;-87
2022/12/21 06:53:24;;;;;;;122.88;116.40;;;4.60;99.90;;;;;;5048393;28;20055;-90
2022/12/21 06:55:57;;;;;;;88.93;85.10;;;4.60;99.90;;;;;;5048137;28;20029;-89
2022/12/21 06:58:22;;;;;;;181.43;171.55;;;4.60;99.90;;;;;;5043880;28;20057;-90
2022/12/21 07:00:49;;;;;;;45.42;42.95;;;4.80;99.90;;;;;;5045069;28;20087;-89
2022/12/21 07:03:15;;;;;;;100.50;95.95;;;4.80;99.90;;;;;;5038101;28;20071;-89
2022/12/21 07:05:41;;;;;;;95.07;90.25;;;4.80;99.90;;;;;;5052705;28;20037;-89
2022/12/21 07:08:06;;;;;;;154.93;137.00;;;4.80;99.90;;;;;;5044907;28;20029;-89
2022/12/21 07:10:32;;;;;;;105.10;96.35;;;4.90;99.90;;;;;;5048006;28;20079;-89
2022/12/21 07:12:58;;;;;;;107.72;99.68;;;4.90;99.90;;;;;;5050047;28;20786;-90
2022/12/21 07:15:24;;;;;;;207.27;187.27;;;5.00;99.90;;;;;;5050269;28;20044;-89
2022/12/21 07:17:50;;;;;;;289.15;272.15;;;5.10;99.90;;;;;;5029581;28;20117;-89
2022/12/21 07:20:16;;;;;;;53.40;51.25;;;5.10;99.90;;;;;;5049628;28;20136;-88
2022/12/21 07:22:41;;;;;;;84.15;80.18;;;5.00;99.90;;;;;;5046648;28;20041;-89
2022/12/21 07:25:07;;;;;;;173.75;164.05;;;5.10;99.90;;;;;;5033498;28;20083;-88
2022/12/21 07:27:33;;;;;;;561.28;488.98;;;5.10;99.90;;;;;;5034980;28;20021;-85
2022/12/21 07:29:58;;;;;;;104.63;100.50;;;5.10;99.90;;;;;;5048481;28;20091;-90
2022/12/21 07:32:24;;;;;;;206.20;194.25;;;5.00;99.90;;;;;;5046738;28;20066;-89
2022/12/21 07:34:50;;;;;;;106.88;102.82;;;5.00;99.90;;;;;;5047697;28;20515;-89
2022/12/21 07:37:16;;;;;;;195.93;181.65;;;4.90;99.90;;;;;;5048045;28;20033;-89
2022/12/21 07:39:43;;;;;;;131.18;125.78;;;4.90;99.90;;;;;;5033174;28;20749;-86
2022/12/21 07:42:11;;;;;;;93.53;89.75;;;4.80;99.90;;;;;;5046954;28;20033;-89
2022/12/21 07:44:37;;;;;;;140.30;134.52;;;4.90;99.90;;;;;;5035608;28;20040;-89
2022/12/21 07:47:03;;;;;;;93.13;89.45;;;5.00;99.90;;;;;;5049113;28;20388;-90
2022/12/21 07:49:28;;;;;;;194.88;184.60;;;5.10;99.90;;;;;;5049447;28;20071;-88
2022/12/21 07:51:55;;;;;;;555.70;442.05;;;5.20;99.90;;;;;;5053425;28;20186;-88
2022/12/21 07:54:22;;;;;;;152.95;146.55;;;5.40;99.90;;;;;;5050158;28;20028;-89
2022/12/21 07:56:48;;;;;;;130.13;124.65;;;5.50;99.90;;;;;;5033756;28;20037;-90
2022/12/21 07:59:14;;;;;;;181.82;174.85;;;5.50;99.90;;;;;;5053979;28;20040;-87
2022/12/21 08:01:39;;;;;;;142.00;136.45;;;5.50;99.90;;;;;;5045959;28;20124;-89
2022/12/21 08:04:07;;;;;;;135.70;130.15;;;5.50;99.90;;;;;;5050299;28;20194;-89
2022/12/21 08:06:33;;;;;;;101.40;97.32;;;5.40;99.90;;;;;;5049851;28;20407;-88
2022/12/21 08:08:59;;;;;;;255.52;243.55;;;5.40;99.90;;;;;;5052497;28;20029;-89
2022/12/21 08:11:25;;;;;;;78.32;75.32;;;5.40;99.90;;;;;;5050256;28;20086;-89
2022/12/21 08:13:52;;;;;;;114.30;109.78;;;5.30;99.90;;;;;;5050315;28;20029;-88
2022/12/21 08:16:21;;;;;;;123.05;118.40;;;5.20;99.90;;;;;;5048930;28;20040;-90
2022/12/21 08:18:50;;;;;;;114.63;110.20;;;5.20;99.90;;;;;;5033704;28;20044;-90
2022/12/21 08:21:16;;;;;;;120.80;115.85;;;5.20;99.90;;;;;;5032669;28;20120;-89
2022/12/21 08:23:43;;;;;;;82.30;78.72;;;5.20;99.90;;;;;;5050987;28;20029;-89
2022/12/21 08:26:12;;;;;;;145.43;139.73;;;5.30;99.90;;;;;;5051574;28;20036;-90
2022/12/21 08:28:39;;;;;;;137.27;131.63;;;5.20;99.90;;;;;;5034172;28;20503;-88
2022/12/21 08:31:15;;;;;;;140.20;134.13;;;5.20;99.90;;;;;;5046349;28;20119;-88
2022/12/21 08:33:42;;;;;;;153.75;147.75;;;5.30;99.90;;;;;;5053143;28;20032;-87
2022/12/21 08:36:14;;;;;;;160.52;154.20;;;5.20;99.90;;;;;;5035658;28;20079;-86
2022/12/21 08:38:40;;;;;;;234.48;222.00;;;5.30;99.90;;;;;;5050980;28;20044;-86
2022/12/21 08:41:12;;;;;;;122.72;117.47;;;5.20;99.90;;;;;;5048983;28;20103;-86
2022/12/21 08:43:38;;;;;;;137.07;131.68;;;5.10;99.90;;;;;;5046246;28;20629;-88
2022/12/21 08:46:06;;;;;;;136.85;130.07;;;5.20;99.90;;;;;;5047460;28;20529;-89
2022/12/21 08:48:32;;;;;;;56.55;53.97;;;5.10;99.90;;;;;;5048697;28;20094;-89
2022/12/21 08:50:59;;;;;;;140.27;133.43;;;5.10;99.90;;;;;;5048638;28;20037;-88
2022/12/21 08:53:26;;;;;;;99.60;95.35;;;5.20;99.90;;;;;;5052732;28;20047;-87
2022/12/21 08:55:52;;;;;;;100.72;96.50;;;5.30;99.90;;;;;;5054898;28;20465;-89
2022/12/21 08:58:19;;;;;;;112.65;107.13;;;5.40;99.90;;;;;;5046356;28;20053;-89
2022/12/21 09:00:45;;;;;;;360.55;336.48;;;5.40;99.90;;;;;;5049328;28;20068;-89
2022/12/21 09:03:11;;;;;;;94.47;89.32;;;5.40;99.90;;;;;;5050107;28;20056;-88
2022/12/21 09:05:38;;;;;;;109.55;103.78;;;5.40;99.90;;;;;;5047974;28;20041;-89
2022/12/21 09:08:05;;;;;;;96.68;91.53;;;5.40;99.90;;;;;;5048554;28;20155;-88
2022/12/21 09:10:33;;;;;;;161.07;153.95;;;5.30;99.90;;;;;;5047713;28;20040;-87
2022/12/21 09:12:59;;;;;;;178.73;165.43;;;5.30;99.90;;;;;;5048348;28;20025;-87
2022/12/21 09:15:24;;;;;;;113.32;107.93;;;5.20;99.90;;;;;;5048366;28;20090;-89
2022/12/21 09:17:50;;;;;;;82.28;78.45;;;5.20;99.90;;;;;;5048588;28;20504;-88
2022/12/21 09:20:17;;;;;;;70.07;66.15;;;5.20;99.90;;;;;;5036243;28;20132;-89
2022/12/21 09:22:42;;;;;;;144.38;132.30;;;5.20;99.90;;;;;;5047422;28;20064;-88
2022/12/21 09:25:09;;;;;;;94.72;89.93;;;5.30;99.90;;;;;;5052753;28;20065;-88
2022/12/21 09:27:35;;;;;;;131.63;124.65;;;5.20;99.90;;;;;;5048679;28;20033;-89
2022/12/21 09:30:01;;;;;;;672.90;407.15;;;5.30;99.90;;;;;;5049468;28;20024;-85
2022/12/21 09:32:27;;;;;;;196.77;186.55;;;5.30;99.90;;;;;;5049804;28;20739;-88
2022/12/21 09:34:52;;;;;;;152.30;141.00;;;5.30;99.90;;;;;;5046336;28;20438;-88
2022/12/21 09:37:18;;;;;;;162.30;154.32;;;5.40;99.90;;;;;;5048725;28;20036;-87
2022/12/21 09:39:44;;;;;;;164.35;157.23;;;5.30;99.90;;;;;;5048368;28;20040;-86
2022/12/21 09:42:29;;;;;;;156.65;148.55;;;5.40;99.90;;;;;;5036432;28;20021;-88
2022/12/21 09:45:21;;;;;;;66.90;63.83;;;5.50;99.90;;;;;;5046690;28;20025;-86
2022/12/21 09:47:47;;;;;;;134.38;128.48;;;5.60;99.90;;;;;;5046634;28;20029;-88
2022/12/21 09:50:40;;;;;;;288.60;268.77;;;5.60;99.90;;;;;;5048132;28;20029;-87
2022/12/21 09:53:40;;;;;;;115.72;110.32;;;5.60;99.90;;;;;;5044811;28;20014;-88
2022/12/21 09:56:09;;;;;;;63.80;61.03;;;5.60;99.90;;;;;;5028839;28;20071;-88
2022/12/21 09:58:38;;;;;;;64.20;61.50;;;5.50;99.90;;;;;;5050182;28;20061;-85
2022/12/21 10:01:20;;;;;;;247.50;236.77;;;5.60;99.90;;;;;;5047017;28;20033;-86
2022/12/21 10:04:06;;;;;;;98.10;91.53;;;5.60;99.90;;;;;;5046691;28;20123;-89
2022/12/21 10:06:57;;;;;;;113.30;108.30;;;5.60;99.90;;;;;;5048971;28;20045;-87
2022/12/21 10:09:30;;;;;;;112.88;102.18;;;5.70;99.90;;;;;;5047560;28;20021;-87
2022/12/21 10:12:23;;;;;;;53.53;51.08;;;5.70;99.90;;;;;;5050010;28;20020;-86
2022/12/21 10:14:51;;;;;;;142.02;133.50;;;5.60;99.90;;;;;;5046606;28;20414;-88
2022/12/21 10:17:35;;;;;;;163.15;151.18;;;5.60;99.90;;;;;;5052900;28;20021;-88
2022/12/21 10:20:24;;;;;;;86.93;82.93;;;5.70;99.90;;;;;;5028634;28;20723;-88
2022/12/21 10:22:54;;;;;;;72.43;69.15;;;5.90;99.90;;;;;;5051448;28;20029;-88
2022/12/21 10:25:25;;;;;;;143.38;136.15;;;5.90;99.90;;;;;;5046775;28;20485;-89
2022/12/21 10:28:26;;;;;;;133.82;125.05;;;5.90;99.90;;;;;;5051147;28;20478;-87
2022/12/21 10:31:04;;;;;;;80.90;76.93;;;5.90;99.90;;;;;;5048549;28;20029;-89
2022/12/21 10:33:30;;;;;;;84.88;80.75;;;5.90;99.90;;;;;;5034424;28;20107;-87
2022/12/21 10:36:02;;;;;;;118.13;112.40;;;6.00;99.90;;;;;;5048593;28;20104;-87
2022/12/21 10:38:31;;;;;;;82.00;78.47;;;5.90;99.90;;;;;;5046118;28;20024;-88
2022/12/21 10:40:58;;;;;;;99.10;94.82;;;5.90;99.90;;;;;;5055011;28;20032;-88
2022/12/21 10:43:36;;;;;;;139.25;133.10;;;6.00;99.90;;;;;;5052163;28;20052;-83
2022/12/21 10:46:02;;;;;;;85.07;81.43;;;6.00;99.90;;;;;;5050769;28;20078;-86
2022/12/21 10:48:31;;;;;;;265.33;249.10;;;6.00;99.90;;;;;;5061421;28;20063;-87
2022/12/21 10:51:13;;;;;;;179.32;171.85;;;6.10;99.90;;;;;;5054910;28;20632;-87
2022/12/21 10:53:39;;;;;;;93.40;87.45;;;6.10;99.90;;;;;;5052056;28;20074;-84
2022/12/21 10:56:11;;;;;;;153.32;146.20;;;6.20;99.90;;;;;;5060070;28;20136;-85
2022/12/21 10:58:51;;;;;;;83.40;78.75;;;6.30;99.90;;;;;;5039280;28;20041;-87
2022/12/21 11:01:20;;;;;;;91.30;87.43;;;6.30;99.90;;;;;;5057615;28;20044;-87
2022/12/21 11:04:05;;;;;;;176.25;168.88;;;6.30;99.90;;;;;;5046430;28;20041;-84
2022/12/21 11:06:31;;;;;;;46.40;44.38;;;6.30;99.90;;;;;;5051785;28;20028;-84
2022/12/21 11:08:58;;;;;;;60.85;58.13;;;6.30;99.90;;;;;;5055135;28;20351;-85
2022/12/21 11:11:36;;;;;;;132.13;125.93;;;6.30;99.90;;;;;;5050976;28;20040;-86
2022/12/21 11:14:16;;;;;;;162.70;150.40;;;6.30;99.90;;;;;;5050864;28;20048;-80
2022/12/21 11:16:44;;;;;;;170.15;161.77;;;6.30;99.90;;;;;;5054616;28;20127;-83
2022/12/21 11:19:34;;;;;;;102.63;95.22;;;6.40;99.90;;;;;;5053359;28;20082;-86
2022/12/21 11:22:00;;;;;;;78.30;75.07;;;6.40;99.90;;;;;;5038799;28;20025;-84
2022/12/21 11:24:38;;;;;;;53.00;50.67;;;6.40;99.90;;;;;;5053349;28;20025;-85
2022/12/21 11:27:36;;;;;;;79.55;76.20;;;6.40;99.90;;;;;;5051512;28;20040;-85
2022/12/21 11:30:08;;;;;;;52.67;50.50;;;6.40;99.90;;;;;;5049383;28;20036;-80
2022/12/21 11:32:42;;;;;;;66.50;63.80;;;6.30;99.90;;;;;;5047571;28;21819;-83
2022/12/21 11:35:31;;;;;;;113.50;102.63;;;6.30;99.90;;;;;;5048279;28;20033;-83
2022/12/21 11:38:05;;;;;;;58.45;56.03;;;6.30;99.90;;;;;;5053798;28;20029;-83
2022/12/21 11:40:30;;;;;;;213.40;158.10;;;6.40;99.90;;;;;;5050183;28;20463;-86
2022/12/21 11:42:59;;;;;;;85.28;81.47;;;6.40;99.90;;;;;;5053089;28;20029;-85
2022/12/21 11:45:55;;;;;;;182.65;166.55;;;6.30;99.90;;;;;;5054907;28;20025;-84
2022/12/21 11:48:58;;;;;;;47.17;45.08;;;6.40;99.90;;;;;;5054090;28;20036;-84
2022/12/21 11:52:02;;;;;;;100.75;93.47;;;6.50;99.90;;;;;;5047215;28;20052;-84
2022/12/21 11:54:36;;;;;;;53.92;51.53;;;6.40;99.90;;;;;;5053520;28;20056;-86
2022/12/21 11:57:23;;;;;;;112.55;104.00;;;6.50;99.90;;;;;;5054483;28;20090;-83
2022/12/21 12:00:00;;;;;;;89.30;85.75;;;6.50;99.90;;;;;;5051575;28;20039;-84
2022/12/21 12:03:03;;;;;;;116.63;110.80;;;6.80;99.90;;;;;;5051767;28;20029;-81
2022/12/21 12:05:41;;;;;;;84.00;79.72;;;7.00;99.90;;;;;;5052558;28;20052;-81
2022/12/21 12:08:28;;;;;;;100.18;95.20;;;6.80;99.90;;;;;;5051988;28;20053;-80
2022/12/21 12:11:32;;;;;;;51.50;49.00;;;6.80;99.90;;;;;;5034932;28;20021;-80
2022/12/21 12:14:03;;;;;;;63.78;61.10;;;6.70;99.90;;;;;;5052442;28;20134;-82
2022/12/21 12:16:56;;;;;;;137.60;131.95;;;7.00;99.90;;;;;;5047328;28;20049;-78
2022/12/21 12:19:38;;;;;;;59.33;56.85;;;7.10;99.90;;;;;;5052397;28;20038;-78
2022/12/21 12:22:42;;;;;;;134.70;127.68;;;7.50;99.90;;;;;;5050513;28;20040;-82
2022/12/21 12:25:31;;;;;;;60.83;58.25;;;7.70;99.90;;;;;;4989411;28;20033;-79
2022/12/21 12:28:14;;;;;;;93.28;89.15;;;7.70;99.90;;;;;;5006006;28;20056;-82
2022/12/21 12:30:52;;;;;;;60.95;58.65;;;7.40;99.90;;;;;;5040219;28;20331;-84
2022/12/21 12:33:43;;;;;;;82.60;79.35;;;7.30;99.90;;;;;;5037205;28;20087;-84
2022/12/21 12:36:08;;;;;;;;;;;7.50;99.90;;;;;;5050667;28;20104;-83
2022/12/21 12:38:46;;;;;;;52.13;49.95;;;7.60;99.90;;;;;;5050260;28;20007;-84
2022/12/21 12:41:36;;;;;;;71.55;68.80;;;7.80;99.90;;;;;;5050088;28;20798;-81
2022/12/21 12:44:33;;;;;;;77.70;74.38;;;8.00;99.90;;;;;;5051020;28;20171;-86
2022/12/21 12:47:09;;;;;;;72.00;69.10;;;7.80;99.90;;;;;;5049927;28;20050;-85
2022/12/21 12:49:54;;;;;;;189.18;178.35;;;7.50;99.90;;;;;;5049831;28;20090;-87
2022/12/21 12:52:23;;;;;;;110.47;106.07;;;7.30;99.90;;;;;;5052775;28;20036;-83
2022/12/21 12:55:10;;;;;;;202.32;186.43;;;7.10;99.90;;;;;;5049961;28;20067;-85
2022/12/21 12:57:49;;;;;;;101.53;97.65;;;7.00;99.90;;;;;;5048260;28;20057;-86
2022/12/21 13:00:18;;;;;;;137.05;131.38;;;7.00;99.90;;;;;;5046201;28;20029;-83
2022/12/21 13:02:47;;;;;;;196.13;187.85;;;7.00;99.90;;;;;;5051875;28;20052;-85
2022/12/21 13:05:24;;;;;;;185.25;174.43;;;7.00;99.90;;;;;;5038150;28;20045;-82
2022/12/21 13:08:16;;;;;;;258.23;229.85;;;7.00;99.90;;;;;;5046656;28;20036;-84
2022/12/21 13:11:05;;;;;;;226.73;207.90;;;7.00;99.90;;;;;;5044317;28;20024;-86